Anuket Pearl — 9HA2703 — position and weather

sailwx.info

Track history (hours):
 
Tides and Currents Weather Stations Pressure Air Temp Water Temp Dewpoint Dewpoint Depression Visibility Wind Speed Wind Dir Waves Ship Positions

Anuket Pearl

Last reported at 2018-Feb-13 20:19 UTC. Time now 2018-Feb-18 22:25 UTC.
Position N 05°20' E 000°07'.

Length 101 m; draft 7.2 m.

Type: Ship. MMSI: 215338000.

Date/timePositionNaut miles runAvg speedWind from/ knotsBaromVisibWave heightAir tempDewpointWater temp
2018-Feb-13 20:19N 05°20' E 000°07'3 9.9
2018-Feb-13 20:00N 05°23' E 000°06'5 9.8
2018-Feb-13 19:28N 05°29' E 000°05'510.1
2018-Feb-13 19:00N 05°33' E 000°04'5 9.1
2018-Feb-13 18:31N 05°38' E 000°04'4 7.2
2018-Feb-13 18:00N 05°37' E 000°00'1 1.7
2018-Feb-13 17:30N 05°37' W 000°01'0 0.0
2018-Feb-13 17:01N 05°37' W 000°01'0 0.0
2018-Feb-13 16:26N 05°37' W 000°01'0 0.0
2018-Feb-13 15:59N 05°37' W 000°01'0 0.0
2018-Feb-13 15:29N 05°37' W 000°01'0 0.0
2018-Feb-13 14:59N 05°37' W 000°01'0 0.0
2018-Feb-13 14:29N 05°37' W 000°01'0 0.0
2018-Feb-13 13:59N 05°37' W 000°01'0 0.0
2018-Feb-13 13:29N 05°37' W 000°01'0 0.0
2018-Feb-13 12:59N 05°37' W 000°01'0 0.0
2018-Feb-13 12:29N 05°37' W 000°01'0 0.0
2018-Feb-13 11:59N 05°37' W 000°01'0 0.0
2018-Feb-13 11:29N 05°37' W 000°01'0 0.0
2018-Feb-13 11:00N 05°37' W 000°01'0 0.0
2018-Feb-13 10:30N 05°37' W 000°01'0 0.2
2018-Feb-13 10:00N 05°37' W 000°01'0 1.0
2018-Feb-13 09:30N 05°37' W 000°00'1 1.8
2018-Feb-13 09:00N 05°37' E 000°01'1 2.2
2018-Feb-13 08:30N 05°37' E 000°02'2 2.9
2018-Feb-13 07:57N 05°37' E 000°03'2 4.6
2018-Feb-13 07:30N 05°35' E 000°03'0 0.5
2018-Feb-13 06:59N 05°34' E 000°03'0 0.0
2018-Feb-13 06:29N 05°34' E 000°03'0 0.0
2018-Feb-13 05:59N 05°34' E 000°03'0 0.0
2018-Feb-13 05:29N 05°34' E 000°03'0 0.0
2018-Feb-13 04:59N 05°34' E 000°03'0 0.0
2018-Feb-13 04:29N 05°34' E 000°03'0 0.0
2018-Feb-13 03:59N 05°34' E 000°03'0 0.0
2018-Feb-13 03:29N 05°34' E 000°03'0 0.0
2018-Feb-13 02:59N 05°34' E 000°03'0 0.0
2018-Feb-13 02:29N 05°34' E 000°03'0 0.0
2018-Feb-13 01:59N 05°34' E 000°03'0 0.0
2018-Feb-13 01:29N 05°34' E 000°03'0 0.0
2018-Feb-13 00:59N 05°34' E 000°03'0 0.0
2018-Feb-13 00:29N 05°34' E 000°03'0 0.0
2018-Feb-12 23:59N 05°34' E 000°03'0 0.0
2018-Feb-12 23:29N 05°34' E 000°03'0 0.0
2018-Feb-12 22:59N 05°34' E 000°03'0 0.0
2018-Feb-12 22:29N 05°34' E 000°03'0 0.0
2018-Feb-12 21:59N 05°34' E 000°03'0 0.0
2018-Feb-12 21:29N 05°34' E 000°03'0 0.0
2018-Feb-12 20:59N 05°34' E 000°03'0 0.0
2018-Feb-12 20:29N 05°34' E 000°03'0 0.0
2018-Feb-12 19:59N 05°34' E 000°03'0 0.3
2018-Feb-12 19:30N 05°34' E 000°03'0 0.8
2018-Feb-12 19:00N 05°34' E 000°03'4 8.4
2018-Feb-12 18:30N 05°30' E 000°05'5 9.6
2018-Feb-12 18:00N 05°27' E 000°09'5 9.9
2018-Feb-12 17:30N 05°24' E 000°13'8 9.8
2018-Feb-12 16:43N 05°18' E 000°18'2 9.5
2018-Feb-12 16:27N 05°17' E 000°20'  
2018-Feb-04 19:39N 05°50' E 001°12'1 9.1
2018-Feb-04 19:30N 05°52' E 001°12'5 9.2
2018-Feb-04 18:57N 05°57' E 001°13'4 9.1
2018-Feb-04 18:30N 06°01' E 001°13'2 3.9
2018-Feb-04 17:56N 06°03' E 001°14'2 3.7
2018-Feb-04 17:28N 06°04' E 001°15'7 0.4
2018-Feb-03 23:52N 05°58' E 001°16'  
Track history (hours):
 
Tides and Currents Weather Stations Pressure Air Temp Water Temp Dewpoint Dewpoint Depression Visibility Wind Speed Wind Dir Waves Ship Positions

Anuket Pearl

Last reported at 2018-Feb-13 20:19 UTC. Time now 2018-Feb-18 22:25 UTC.
Position N 05°20' E 000°07'.

Length 101 m; draft 7.2 m.

Type: Ship. MMSI: 215338000.

Date/timePositionNaut miles runAvg speedWind from/ knotsBaromVisibWave heightAir tempDewpointWater temp
2018-Feb-13 20:19N 05°20' E 000°07'3 9.9
2018-Feb-13 20:00N 05°23' E 000°06'5 9.8
2018-Feb-13 19:28N 05°29' E 000°05'510.1
2018-Feb-13 19:00N 05°33' E 000°04'5 9.1
2018-Feb-13 18:31N 05°38' E 000°04'4 7.2
2018-Feb-13 18:00N 05°37' E 000°00'1 1.7
2018-Feb-13 17:30N 05°37' W 000°01'0 0.0
2018-Feb-13 17:01N 05°37' W 000°01'0 0.0
2018-Feb-13 16:26N 05°37' W 000°01'0 0.0
2018-Feb-13 15:59N 05°37' W 000°01'0 0.0
2018-Feb-13 15:29N 05°37' W 000°01'0 0.0
2018-Feb-13 14:59N 05°37' W 000°01'0 0.0
2018-Feb-13 14:29N 05°37' W 000°01'0 0.0
2018-Feb-13 13:59N 05°37' W 000°01'0 0.0
2018-Feb-13 13:29N 05°37' W 000°01'0 0.0
2018-Feb-13 12:59N 05°37' W 000°01'0 0.0
2018-Feb-13 12:29N 05°37' W 000°01'0 0.0
2018-Feb-13 11:59N 05°37' W 000°01'0 0.0
2018-Feb-13 11:29N 05°37' W 000°01'0 0.0
2018-Feb-13 11:00N 05°37' W 000°01'0 0.0
2018-Feb-13 10:30N 05°37' W 000°01'0 0.2
2018-Feb-13 10:00N 05°37' W 000°01'0 1.0
2018-Feb-13 09:30N 05°37' W 000°00'1 1.8
2018-Feb-13 09:00N 05°37' E 000°01'1 2.2
2018-Feb-13 08:30N 05°37' E 000°02'2 2.9
2018-Feb-13 07:57N 05°37' E 000°03'2 4.6
2018-Feb-13 07:30N 05°35' E 000°03'0 0.5
2018-Feb-13 06:59N 05°34' E 000°03'0 0.0
2018-Feb-13 06:29N 05°34' E 000°03'0 0.0
2018-Feb-13 05:59N 05°34' E 000°03'0 0.0
2018-Feb-13 05:29N 05°34' E 000°03'0 0.0
2018-Feb-13 04:59N 05°34' E 000°03'0 0.0
2018-Feb-13 04:29N 05°34' E 000°03'0 0.0
2018-Feb-13 03:59N 05°34' E 000°03'0 0.0
2018-Feb-13 03:29N 05°34' E 000°03'0 0.0
2018-Feb-13 02:59N 05°34' E 000°03'0 0.0
2018-Feb-13 02:29N 05°34' E 000°03'0 0.0
2018-Feb-13 01:59N 05°34' E 000°03'0 0.0
2018-Feb-13 01:29N 05°34' E 000°03'0 0.0
2018-Feb-13 00:59N 05°34' E 000°03'0 0.0
2018-Feb-13 00:29N 05°34' E 000°03'0 0.0
2018-Feb-12 23:59N 05°34' E 000°03'0 0.0
2018-Feb-12 23:29N 05°34' E 000°03'0 0.0
2018-Feb-12 22:59N 05°34' E 000°03'0 0.0
2018-Feb-12 22:29N 05°34' E 000°03'0 0.0
2018-Feb-12 21:59N 05°34' E 000°03'0 0.0
2018-Feb-12 21:29N 05°34' E 000°03'0 0.0
2018-Feb-12 20:59N 05°34' E 000°03'0 0.0
2018-Feb-12 20:29N 05°34' E 000°03'0 0.0
2018-Feb-12 19:59N 05°34' E 000°03'0 0.3
2018-Feb-12 19:30N 05°34' E 000°03'0 0.8
2018-Feb-12 19:00N 05°34' E 000°03'4 8.4
2018-Feb-12 18:30N 05°30' E 000°05'5 9.6
2018-Feb-12 18:00N 05°27' E 000°09'5 9.9
2018-Feb-12 17:30N 05°24' E 000°13'8 9.8
2018-Feb-12 16:43N 05°18' E 000°18'2 9.5
2018-Feb-12 16:27N 05°17' E 000°20'  
2018-Feb-04 19:39N 05°50' E 001°12'1 9.1
2018-Feb-04 19:30N 05°52' E 001°12'5 9.2
2018-Feb-04 18:57N 05°57' E 001°13'4 9.1
2018-Feb-04 18:30N 06°01' E 001°13'2 3.9
2018-Feb-04 17:56N 06°03' E 001°14'2 3.7
2018-Feb-04 17:28N 06°04' E 001°15'7 0.4
2018-Feb-03 23:52N 05°58' E 001°16'  

Dump ship's entire track history